首页
METAR-TAF:

METAR-TAF

机场 :

费尔南多·萨·卡内罗机场

波爾圖, 葡萄牙

纬度: 41-14N, 经度: 008-41W, 海拔: 69米

当前天气观测

该预报发布于43分钟前的13:30 UTC
风速14节,风向南转西南
温度 14°C
湿度 100%
气压 1022 hPa
能見度: 7000
多云层高于200英尺
阴天层高于400英尺
小雨

METAR: LPPR 291330Z 20014KT 7000 -RA BKN002 OVC004 14/14 Q1022

时间: 14:13 (14:13 UTC)

预报

该预报发布于3小时和13分钟前的11:00 UTC
预报有效从29日的 12点(UTC)到 30日的 12点(UTC)
风速15节,风向
能見度: 6000
散云层高于300英尺
多云层高于600英尺
短暂存在
从 29日的 12点(UTC)到 29日的 21点(UTC)
能見度: 3000
多云层高于200英尺
小雨, 毛毛雨, 轻雾
成为
从 29日的 21点(UTC)到 29日的 24点(UTC)
少量云层高于1200英尺
多云层高于2000英尺
成为
从 30日的 02点(UTC)到 30日的 04点(UTC)
能見度: 5000
散云层高于400英尺
多云层高于800英尺
小雨, 毛毛雨, 轻雾
短暂存在
从 30日的 04点(UTC)到 30日的 12点(UTC)
能見度: 3000
散云层高于200英尺
多云层高于400英尺
雨, 毛毛雨, 轻雾
几率 40% :
短暂存在
从 30日的 08点(UTC)到 30日的 12点(UTC)
风速18节,风向,有时为28节阵风
能見度: 1500
多云层高于200英尺
大毛毛雨, 雨, 轻雾

TAF: LPPR 291100Z 2912/3012 19015KT 6000 SCT003 BKN006 TEMPO 2912/2921 3000 -RADZ BR BKN002 BECMG 2921/2924 FEW012 BKN020 BECMG 3002/3004 5000 -RADZ BR SCT004 BKN008 TEMPO 3004/3012 3000 RADZ BR SCT002 BKN004 PROB40 TEMPO 3008/3012 18018G28KT 1500 +DZRA BR BKN002

超过4000个机场的气象观测和天气预报(METAR&TAF报告)。

可查询的气象台以黄色和红色小点在地图上表示。

将鼠标移到小点上方,可查看气象台名称。

然后点击查看天气观测和预报。

如需切换地图:点击带黑十字的绿色按钮放大地图;点击带横线的绿色按钮缩小地图;或者点击绿色箭头查看邻近地区的地图。


METAR-TAF: